createdAt,value
2022-08-16T00:02:13.216Z,19.41
2022-08-16T00:04:41.111Z,19.42
2022-08-16T00:07:08.548Z,19.35
2022-08-16T00:09:37.503Z,19.14
2022-08-16T00:12:09.392Z,19.25
2022-08-16T00:14:36.845Z,19.27
2022-08-16T00:17:18.842Z,19.29
2022-08-16T00:19:49.161Z,19.26
2022-08-16T00:22:25.052Z,19.33
2022-08-16T00:24:54.452Z,19.24
2022-08-16T00:27:22.390Z,19.33
2022-08-16T00:30:00.828Z,19.17
2022-08-16T00:32:38.511Z,19.20
2022-08-16T00:35:13.255Z,19.09
2022-08-16T00:37:56.842Z,19.07
2022-08-16T00:40:34.568Z,19.04
2022-08-16T00:43:12.096Z,19.07
2022-08-16T00:45:58.285Z,18.92
2022-08-16T00:48:31.285Z,18.89
2022-08-16T00:51:01.008Z,18.90
2022-08-16T00:53:30.627Z,19.07
2022-08-16T00:56:05.451Z,19.16
2022-08-16T00:58:35.944Z,19.12
2022-08-16T01:01:08.435Z,18.94
2022-08-16T01:03:41.704Z,18.90
2022-08-16T01:06:39.764Z,18.89
2022-08-16T01:09:00.549Z,18.81
2022-08-16T01:11:29.403Z,18.81
2022-08-16T01:14:02.476Z,18.76
2022-08-16T01:16:31.210Z,18.72
2022-08-16T01:19:04.442Z,18.68
2022-08-16T01:21:42.773Z,18.63
2022-08-16T01:24:52.890Z,18.63
2022-08-16T01:27:10.202Z,18.38
2022-08-16T01:29:57.765Z,18.24
2022-08-16T01:32:41.152Z,18.27
2022-08-16T01:35:16.896Z,18.41
2022-08-16T01:37:53.987Z,18.45
2022-08-16T01:40:27.266Z,18.60
2022-08-16T01:42:55.915Z,18.35
2022-08-16T01:45:24.376Z,18.43
2022-08-16T01:48:20.254Z,18.39
2022-08-16T01:51:09.333Z,18.30
2022-08-16T01:53:40.567Z,18.26
2022-08-16T01:56:23.380Z,18.36
2022-08-16T01:58:54.554Z,18.30
2022-08-16T02:01:22.231Z,18.31
2022-08-16T02:03:50.270Z,18.30
2022-08-16T02:06:33.850Z,18.39
2022-08-16T02:09:07.143Z,18.24
2022-08-16T02:11:47.855Z,18.24
2022-08-16T02:14:22.278Z,18.26
2022-08-16T02:16:50.612Z,18.12
2022-08-16T02:19:20.278Z,18.12
2022-08-16T02:22:08.249Z,18.21
2022-08-16T02:24:45.787Z,18.58
2022-08-16T02:27:15.613Z,18.45
2022-08-16T02:29:43.628Z,18.34
2022-08-16T02:32:51.100Z,18.30
2022-08-16T02:35:06.425Z,18.30
2022-08-16T02:37:51.391Z,18.42
2022-08-16T02:40:22.060Z,18.36
2022-08-16T02:42:51.894Z,18.45
2022-08-16T02:45:24.840Z,18.55
2022-08-16T02:48:00.592Z,18.32
2022-08-16T02:50:55.053Z,18.20
2022-08-16T02:53:18.472Z,18.28
2022-08-16T02:55:51.276Z,18.22
2022-08-16T02:58:20.279Z,18.14
2022-08-16T03:00:53.368Z,18.17
2022-08-16T03:03:24.419Z,18.26
2022-08-16T03:05:52.394Z,18.05
2022-08-16T03:08:51.316Z,18.16
2022-08-16T03:11:16.609Z,18.13
2022-08-16T03:13:48.235Z,17.75
2022-08-16T03:16:38.470Z,17.80
2022-08-16T03:19:06.734Z,17.94
2022-08-16T03:21:37.686Z,17.89
2022-08-16T03:24:29.037Z,18.01
2022-08-16T03:26:54.147Z,17.85
2022-08-16T03:29:30.144Z,17.89
2022-08-16T03:31:59.220Z,17.94
2022-08-16T03:34:27.456Z,17.90
2022-08-16T03:36:55.248Z,17.96
2022-08-16T03:39:23.289Z,17.81
2022-08-16T03:41:59.614Z,17.54
2022-08-16T03:44:40.702Z,17.49
2022-08-16T03:47:18.544Z,17.50
2022-08-16T03:49:51.620Z,17.59
2022-08-16T03:52:20.090Z,17.82
2022-08-16T03:54:57.396Z,17.59
2022-08-16T03:57:32.120Z,17.59
2022-08-16T04:00:35.199Z,17.76
2022-08-16T04:03:07.279Z,17.63
2022-08-16T04:05:36.757Z,17.73
2022-08-16T04:08:22.738Z,17.61
2022-08-16T04:10:52.982Z,17.61
2022-08-16T04:14:01.097Z,17.77
2022-08-16T04:16:26.383Z,17.88
2022-08-16T04:19:02.004Z,17.84
2022-08-16T04:21:32.372Z,18.05
2022-08-16T04:24:00.652Z,17.87
2022-08-16T04:26:30.935Z,17.90
2022-08-16T04:29:17.257Z,17.95
2022-08-16T04:31:56.913Z,17.90
2022-08-16T04:34:27.366Z,17.96
2022-08-16T04:36:55.187Z,18.16
2022-08-16T04:39:24.933Z,18.31
2022-08-16T04:42:10.950Z,18.44
2022-08-16T04:44:54.190Z,18.28
2022-08-16T04:47:31.517Z,18.32
2022-08-16T04:50:00.781Z,18.38
2022-08-16T04:52:33.694Z,18.42
2022-08-16T04:55:06.069Z,18.51
2022-08-16T04:57:33.648Z,18.46
2022-08-16T05:00:31.917Z,18.60
2022-08-16T05:02:56.127Z,18.75
2022-08-16T05:05:24.463Z,18.65
2022-08-16T05:07:58.228Z,18.91
2022-08-16T05:10:29.741Z,19.08
2022-08-16T05:12:57.537Z,19.10
2022-08-16T05:15:25.720Z,19.29
2022-08-16T05:17:58.816Z,19.52
2022-08-16T05:20:38.564Z,19.69
2022-08-16T05:23:14.170Z,19.80
2022-08-16T05:25:48.561Z,19.81
2022-08-16T05:28:16.621Z,19.83
2022-08-16T05:30:44.330Z,19.82
2022-08-16T05:33:16.651Z,19.88
2022-08-16T05:35:55.410Z,19.96
2022-08-16T05:38:32.744Z,20.08
2022-08-16T05:41:09.261Z,20.07
2022-08-16T05:43:43.544Z,20.24
2022-08-16T05:46:30.084Z,20.34
2022-08-16T05:49:05.826Z,20.55
2022-08-16T05:51:39.090Z,20.64
2022-08-16T05:54:07.823Z,20.82
2022-08-16T05:56:37.776Z,20.83
2022-08-16T05:59:06.089Z,20.74
2022-08-16T06:01:38.359Z,20.93
2022-08-16T06:04:12.799Z,21.00
2022-08-16T06:06:43.402Z,21.04
2022-08-16T06:09:25.159Z,21.20
2022-08-16T06:11:53.376Z,21.23
2022-08-16T06:14:21.041Z,21.39
2022-08-16T06:16:50.787Z,21.56
2022-08-16T06:19:19.817Z,21.70
2022-08-16T06:21:55.072Z,21.77
2022-08-16T06:24:53.569Z,21.87
2022-08-16T06:27:11.015Z,22.21
2022-08-16T06:29:39.061Z,22.29
2022-08-16T06:32:07.086Z,22.22
2022-08-16T06:34:57.443Z,22.26
2022-08-16T06:37:23.521Z,22.37
2022-08-16T06:39:50.987Z,22.47
2022-08-16T06:42:19.106Z,22.57
2022-08-16T06:44:46.969Z,22.77
2022-08-16T06:47:16.840Z,22.97
2022-08-16T06:49:54.085Z,23.20
2022-08-16T06:52:59.865Z,23.24
2022-08-16T06:55:13.041Z,23.31
2022-08-16T06:57:41.362Z,23.45
2022-08-16T07:00:24.879Z,23.56
2022-08-16T07:02:54.020Z,23.56
2022-08-16T07:05:27.098Z,23.76
2022-08-16T07:08:11.649Z,23.96
2022-08-16T07:10:41.503Z,24.00
2022-08-16T07:13:11.618Z,24.15
2022-08-16T07:15:50.438Z,24.44
2022-08-16T07:18:20.046Z,24.81
2022-08-16T07:20:51.388Z,25.12
2022-08-16T07:23:18.788Z,25.55
2022-08-16T07:25:46.313Z,26.01
2022-08-16T07:28:20.700Z,26.59
2022-08-16T07:30:52.150Z,26.59
2022-08-16T07:33:52.984Z,26.67
2022-08-16T07:36:09.860Z,26.38
2022-08-16T07:38:38.074Z,26.61
2022-08-16T07:41:10.264Z,26.56
2022-08-16T07:43:40.529Z,26.53
2022-08-16T07:46:38.052Z,26.29
2022-08-16T07:49:02.505Z,25.64
2022-08-16T07:51:35.539Z,25.46
2022-08-16T07:54:09.287Z,25.62
2022-08-16T07:56:38.033Z,25.76
2022-08-16T07:59:05.721Z,26.07
2022-08-16T08:01:33.192Z,25.92
2022-08-16T08:04:02.875Z,25.90
2022-08-16T08:06:33.754Z,25.97
2022-08-16T08:09:01.841Z,26.08
2022-08-16T08:11:31.861Z,26.04
2022-08-16T08:14:03.509Z,26.35
2022-08-16T08:16:31.889Z,26.46
2022-08-16T08:19:02.865Z,26.63
2022-08-16T08:22:00.111Z,26.73
2022-08-16T08:24:22.277Z,26.56
2022-08-16T08:26:59.311Z,26.84
2022-08-16T08:29:37.185Z,26.87
2022-08-16T08:32:58.719Z,27.08
2022-08-16T08:35:00.512Z,27.40
2022-08-16T08:37:51.157Z,27.40
2022-08-16T08:40:24.662Z,27.50
2022-08-16T08:42:57.803Z,27.40
2022-08-16T08:45:48.477Z,27.51
2022-08-16T08:48:34.423Z,27.54
2022-08-16T08:51:03.434Z,27.58
2022-08-16T08:53:32.644Z,27.62
2022-08-16T08:56:01.289Z,27.64
2022-08-16T08:58:54.835Z,28.03
2022-08-16T09:01:31.896Z,27.78
2022-08-16T09:04:04.984Z,28.13
2022-08-16T09:06:32.817Z,28.34
2022-08-16T09:09:01.992Z,28.03
2022-08-16T09:11:40.728Z,28.07
2022-08-16T09:14:24.051Z,28.29
2022-08-16T09:17:01.128Z,28.34
2022-08-16T09:19:34.083Z,28.00
2022-08-16T09:22:03.248Z,28.50
2022-08-16T09:24:47.092Z,28.71
2022-08-16T09:27:20.745Z,28.54
2022-08-16T09:29:48.163Z,28.71
2022-08-16T09:32:30.285Z,28.62
2022-08-16T09:34:58.853Z,28.76
2022-08-16T09:37:29.139Z,29.17
2022-08-16T09:40:00.442Z,29.41
2022-08-16T09:42:29.895Z,29.28
2022-08-16T09:45:11.553Z,29.63
2022-08-16T09:47:57.038Z,29.89
2022-08-16T09:50:38.198Z,30.14
2022-08-16T09:53:15.448Z,29.62
2022-08-16T09:55:49.394Z,29.40
2022-08-16T09:58:40.617Z,29.57
2022-08-16T10:01:05.786Z,29.91
2022-08-16T10:03:36.076Z,29.85
2022-08-16T10:06:03.856Z,29.62
2022-08-16T10:08:31.513Z,29.69
2022-08-16T10:11:24.029Z,29.41
2022-08-16T10:13:52.298Z,29.62
2022-08-16T10:16:22.041Z,29.49
2022-08-16T10:19:01.661Z,29.72
2022-08-16T10:21:35.445Z,29.78
2022-08-16T10:24:03.382Z,30.11
2022-08-16T10:27:20.023Z,30.29
2022-08-16T10:29:21.232Z,29.98
2022-08-16T10:31:53.549Z,29.53
2022-08-16T10:34:30.846Z,29.42
2022-08-16T10:37:00.374Z,29.02
2022-08-16T10:39:40.537Z,28.90
2022-08-16T10:42:13.290Z,29.06
2022-08-16T10:44:42.327Z,29.50
2022-08-16T10:47:11.545Z,30.02
2022-08-16T10:49:39.234Z,30.12
2022-08-16T10:52:18.067Z,30.24
2022-08-16T10:57:35.351Z,30.41
2022-08-16T11:00:06.729Z,29.90
2022-08-16T11:02:59.168Z,29.57
2022-08-16T11:05:59.088Z,29.72
2022-08-16T11:08:17.972Z,30.04
2022-08-16T11:11:07.006Z,29.53
2022-08-16T11:19:17.445Z,29.49
2022-08-16T11:24:41.701Z,29.85
2022-08-16T11:27:23.314Z,30.32
2022-08-16T11:29:55.742Z,30.73
2022-08-16T11:32:31.416Z,30.92
2022-08-16T11:35:11.031Z,30.62
2022-08-16T11:40:38.527Z,30.42
2022-08-16T11:43:06.674Z,30.48
2022-08-16T11:45:39.260Z,30.97
2022-08-16T11:48:10.341Z,31.16
2022-08-16T11:50:37.836Z,30.81
2022-08-16T11:53:08.265Z,30.31
2022-08-16T11:55:38.015Z,30.36
2022-08-16T11:58:08.069Z,30.45
2022-08-16T12:00:51.063Z,30.44
2022-08-16T12:03:21.827Z,30.71
2022-08-16T12:06:00.532Z,30.75
2022-08-16T12:08:28.134Z,30.37
2022-08-16T12:10:59.412Z,30.59
2022-08-16T12:13:29.665Z,30.63
2022-08-16T12:15:58.776Z,30.92
2022-08-16T12:18:26.487Z,31.34
2022-08-16T12:20:55.223Z,31.30
2022-08-16T12:23:26.718Z,31.13
2022-08-16T12:25:54.173Z,31.27
2022-08-16T12:28:36.697Z,31.32
2022-08-16T12:31:06.097Z,31.04
2022-08-16T12:33:44.480Z,30.69
2022-08-16T12:36:13.256Z,31.06
2022-08-16T12:38:48.351Z,30.61
2022-08-16T12:41:24.291Z,31.01
2022-08-16T12:43:52.219Z,30.82
2022-08-16T12:46:20.962Z,30.81
2022-08-16T12:49:00.564Z,30.81
2022-08-16T12:51:57.976Z,30.66
2022-08-16T12:54:19.728Z,31.12
2022-08-16T12:56:48.145Z,30.95
2022-08-16T12:59:20.376Z,30.76
2022-08-16T13:01:50.447Z,30.88
2022-08-16T13:04:24.712Z,30.98
2022-08-16T13:06:53.036Z,30.75
2022-08-16T13:09:21.452Z,30.80
2022-08-16T13:11:59.917Z,30.92
2022-08-16T13:14:32.181Z,31.15
2022-08-16T13:17:03.067Z,31.44
2022-08-16T13:19:56.392Z,31.28
2022-08-16T13:22:21.385Z,31.09
2022-08-16T13:24:50.592Z,31.39
2022-08-16T13:27:18.811Z,31.40
2022-08-16T13:29:57.385Z,31.54
2022-08-16T13:32:39.718Z,31.23
2022-08-16T13:35:11.657Z,31.34
2022-08-16T13:37:39.742Z,31.24
2022-08-16T13:40:20.020Z,31.12
2022-08-16T13:42:48.159Z,30.78
2022-08-16T13:45:17.030Z,30.70
2022-08-16T13:47:52.880Z,30.48
2022-08-16T13:50:31.544Z,30.55
2022-08-16T13:53:08.098Z,30.76
2022-08-16T13:55:35.486Z,30.97
2022-08-16T13:58:36.935Z,30.99
2022-08-16T14:00:52.929Z,31.09
2022-08-16T14:03:22.034Z,31.39
2022-08-16T14:05:52.679Z,31.71
2022-08-16T14:08:23.901Z,31.60
2022-08-16T14:10:54.222Z,31.54
2022-08-16T14:13:21.767Z,31.48
2022-08-16T14:15:49.395Z,31.38
2022-08-16T14:18:20.424Z,31.25
2022-08-16T14:20:51.050Z,30.84
2022-08-16T14:23:23.712Z,30.80
2022-08-16T14:25:53.938Z,30.76
2022-08-16T14:28:23.735Z,30.66
2022-08-16T14:30:53.367Z,30.70
2022-08-16T14:33:21.416Z,30.81
2022-08-16T14:35:50.957Z,30.96
2022-08-16T14:38:23.706Z,30.91
2022-08-16T14:40:54.963Z,30.98
2022-08-16T14:43:23.119Z,30.92
2022-08-16T14:45:50.825Z,30.61
2022-08-16T14:48:25.815Z,30.67
2022-08-16T14:50:55.696Z,30.89
2022-08-16T14:53:24.651Z,30.98
2022-08-16T14:55:54.079Z,31.14
2022-08-16T14:58:34.823Z,31.20
2022-08-16T15:01:04.755Z,31.21
2022-08-16T15:03:33.128Z,31.29
2022-08-16T15:06:07.045Z,31.16
2022-08-16T15:08:40.344Z,31.21
2022-08-16T15:11:08.068Z,31.18
2022-08-16T15:13:35.932Z,31.11
2022-08-16T15:16:03.847Z,31.20
2022-08-16T15:18:32.331Z,31.15
2022-08-16T15:21:00.578Z,31.24
2022-08-16T15:23:31.431Z,31.17
2022-08-16T15:26:03.668Z,30.92
2022-08-16T15:28:32.522Z,30.49
2022-08-16T15:31:03.662Z,30.35
2022-08-16T15:33:33.002Z,30.27
2022-08-16T15:36:02.252Z,30.21
2022-08-16T15:39:02.554Z,30.30
2022-08-16T15:42:03.120Z,30.41
2022-08-16T15:44:44.725Z,30.43
2022-08-16T15:47:22.193Z,30.32
2022-08-16T15:49:55.559Z,30.29
2022-08-16T15:52:29.718Z,30.11
2022-08-16T15:54:58.428Z,30.04
2022-08-16T15:57:30.241Z,29.91
2022-08-16T16:00:14.547Z,29.80
2022-08-16T16:02:42.586Z,29.80
2022-08-16T16:05:11.314Z,29.76
2022-08-16T16:07:41.050Z,29.81
2022-08-16T16:10:29.303Z,29.77
2022-08-16T16:13:00.792Z,29.76
2022-08-16T16:15:32.896Z,29.80
2022-08-16T16:18:09.579Z,29.78
2022-08-16T16:20:39.163Z,29.79
2022-08-16T16:23:10.663Z,29.79
2022-08-16T16:25:39.483Z,29.74
2022-08-16T16:29:05.479Z,29.78
2022-08-16T16:31:04.622Z,29.81
2022-08-16T16:33:34.045Z,29.88
2022-08-16T16:36:03.922Z,29.87
2022-08-16T16:38:34.730Z,29.90
2022-08-16T16:41:04.756Z,29.85
2022-08-16T16:43:40.756Z,29.91
2022-08-16T16:46:40.849Z,29.99
2022-08-16T16:48:56.972Z,29.93
2022-08-16T16:51:27.895Z,29.95
2022-08-16T16:53:57.176Z,29.92
2022-08-16T16:56:30.290Z,29.91
2022-08-16T16:59:04.578Z,29.79
2022-08-16T17:01:56.858Z,29.69
2022-08-16T17:04:31.220Z,29.52
2022-08-16T17:06:59.852Z,29.43
2022-08-16T17:09:27.535Z,29.44
2022-08-16T17:11:55.898Z,29.47
2022-08-16T17:14:33.196Z,29.30
2022-08-16T17:17:01.534Z,29.14
2022-08-16T17:19:31.446Z,29.18
2022-08-16T17:21:59.343Z,29.09
2022-08-16T17:24:33.240Z,28.98
2022-08-16T17:27:07.754Z,28.96
2022-08-16T17:29:45.914Z,28.93
2022-08-16T17:32:34.315Z,28.67
2022-08-16T17:35:08.583Z,28.47
2022-08-16T17:39:27.327Z,28.45
2022-08-16T17:40:47.399Z,28.22
2022-08-16T17:43:19.150Z,28.16
2022-08-16T17:45:49.169Z,27.98
2022-08-16T17:48:17.007Z,27.90
2022-08-16T17:50:45.453Z,27.77
2022-08-16T17:53:14.544Z,27.63
2022-08-16T17:55:46.528Z,27.49
2022-08-16T17:58:22.477Z,27.33
2022-08-16T18:00:55.159Z,27.26
2022-08-16T18:04:02.740Z,27.13
2022-08-16T18:06:15.625Z,27.09
2022-08-16T18:08:43.124Z,26.88
2022-08-16T18:11:12.744Z,26.67
2022-08-16T18:13:43.197Z,26.62
2022-08-16T18:16:12.404Z,26.47
2022-08-16T18:18:39.780Z,26.21
2022-08-16T18:21:24.896Z,26.14
2022-08-16T18:23:52.591Z,26.08
2022-08-16T18:26:20.203Z,25.98
2022-08-16T18:28:47.595Z,25.91
2022-08-16T18:31:16.296Z,25.86
2022-08-16T18:33:44.219Z,25.73
2022-08-16T18:36:20.827Z,25.70
2022-08-16T18:38:49.119Z,25.61
2022-08-16T18:41:16.827Z,25.63
2022-08-16T18:44:23.059Z,25.49
2022-08-16T18:46:32.975Z,25.47
2022-08-16T18:49:00.445Z,25.53
2022-08-16T18:51:27.838Z,25.52
2022-08-16T18:53:55.739Z,25.51
2022-08-16T18:56:23.279Z,25.36
2022-08-16T18:59:10.676Z,25.46
2022-08-16T19:01:40.524Z,25.36
2022-08-16T19:04:55.532Z,25.36
2022-08-16T19:06:55.406Z,25.32
2022-08-16T19:09:22.907Z,25.34
2022-08-16T19:11:50.354Z,25.38
2022-08-16T19:14:18.220Z,25.38
2022-08-16T19:16:47.127Z,25.37
2022-08-16T19:19:15.916Z,25.29
2022-08-16T19:21:43.374Z,25.26
2022-08-16T19:24:18.163Z,25.28
2022-08-16T19:26:45.939Z,25.20
2022-08-16T19:29:13.553Z,25.16
2022-08-16T19:31:41.239Z,24.97
2022-08-16T19:34:11.083Z,24.74
2022-08-16T19:36:40.745Z,24.91
2022-08-16T19:39:11.850Z,24.93
2022-08-16T19:41:41.930Z,24.93
2022-08-16T19:44:10.032Z,24.98
2022-08-16T19:46:38.154Z,24.92
2022-08-16T19:49:06.018Z,24.96
2022-08-16T19:51:34.782Z,24.91
2022-08-16T19:54:02.203Z,24.82
2022-08-16T19:56:29.648Z,24.82
2022-08-16T20:01:45.211Z,24.76
2022-08-16T20:04:13.248Z,24.68
2022-08-16T20:06:42.844Z,24.62
2022-08-16T20:09:12.639Z,24.68
2022-08-16T20:11:42.987Z,24.59
2022-08-16T20:14:10.486Z,24.57
2022-08-16T20:16:37.917Z,24.60
2022-08-16T20:19:05.982Z,24.52
2022-08-16T20:21:33.411Z,24.51
2022-08-16T20:24:32.099Z,24.48
2022-08-16T20:26:49.803Z,24.50
2022-08-16T20:29:17.299Z,24.54
2022-08-16T20:31:44.743Z,24.57
2022-08-16T20:34:12.154Z,24.67
2022-08-16T20:36:39.592Z,24.67
2022-08-16T20:39:09.478Z,24.54
2022-08-16T20:41:36.900Z,24.58
2022-08-16T20:44:04.755Z,24.54
2022-08-16T20:46:39.870Z,24.48
2022-08-16T20:49:09.242Z,24.44
2022-08-16T20:51:50.936Z,24.46
2022-08-16T20:54:22.518Z,24.42
2022-08-16T20:56:49.966Z,24.32
2022-08-16T20:59:17.864Z,24.41
2022-08-16T21:01:46.426Z,24.45
2022-08-16T21:04:18.826Z,24.18
2022-08-16T21:06:53.562Z,24.25
2022-08-16T21:09:24.756Z,24.26
2022-08-16T21:11:54.691Z,24.34
2022-08-16T21:14:22.552Z,24.34
2022-08-16T21:16:49.981Z,24.38
2022-08-16T21:19:17.568Z,24.32
2022-08-16T21:21:45.034Z,24.22
2022-08-16T21:24:14.108Z,24.17
2022-08-16T21:26:44.186Z,24.17
2022-08-16T21:29:23.143Z,24.15
2022-08-16T21:31:52.544Z,24.31
2022-08-16T21:34:19.962Z,24.28
2022-08-16T21:36:47.399Z,24.32
2022-08-16T21:39:14.800Z,24.24
2022-08-16T21:41:43.532Z,24.22
2022-08-16T21:44:10.928Z,24.16
2022-08-16T21:46:38.345Z,24.02
2022-08-16T21:49:05.863Z,24.01
2022-08-16T21:51:33.267Z,24.14
2022-08-16T21:54:00.676Z,24.05
2022-08-16T21:56:29.131Z,24.00
2022-08-16T21:58:57.912Z,23.97
2022-08-16T22:01:26.394Z,24.00
2022-08-16T22:04:03.520Z,24.34
2022-08-16T22:06:42.612Z,24.03
2022-08-16T22:09:11.824Z,23.90
2022-08-16T22:11:39.578Z,23.75
2022-08-16T22:14:08.606Z,23.58
2022-08-16T22:16:39.676Z,23.76
2022-08-16T22:19:07.160Z,23.74
2022-08-16T22:21:35.528Z,23.64
2022-08-16T22:24:03.399Z,23.59
2022-08-16T22:26:33.561Z,23.48
2022-08-16T22:29:02.468Z,23.53
2022-08-16T22:31:31.235Z,23.36
2022-08-16T22:33:59.271Z,23.14
2022-08-16T22:36:27.945Z,23.16
2022-08-16T22:38:57.792Z,23.17
2022-08-16T22:41:26.739Z,23.27
2022-08-16T22:43:54.274Z,23.52
2022-08-16T22:46:21.698Z,23.32
2022-08-16T22:48:50.986Z,23.31
2022-08-16T22:51:19.495Z,23.14
2022-08-16T22:53:47.057Z,23.50
2022-08-16T22:56:15.514Z,23.76
2022-08-16T22:58:43.394Z,23.41
2022-08-16T23:01:12.742Z,23.26
2022-08-16T23:03:40.724Z,23.08
2022-08-16T23:06:11.042Z,23.07
2022-08-16T23:08:41.203Z,23.02
2022-08-16T23:11:10.959Z,22.97
2022-08-16T23:13:52.557Z,22.92
2022-08-16T23:16:25.039Z,22.92
2022-08-16T23:19:00.634Z,22.88
2022-08-16T23:21:29.369Z,22.88
2022-08-16T23:23:56.758Z,22.95
2022-08-16T23:26:44.636Z,22.89
2022-08-16T23:29:15.926Z,22.96
2022-08-16T23:31:53.567Z,22.83
2022-08-16T23:34:21.299Z,22.63
2022-08-16T23:36:50.203Z,22.69
2022-08-16T23:39:17.637Z,22.64
2022-08-16T23:41:45.093Z,22.65
2022-08-16T23:44:58.649Z,22.63
2022-08-16T23:46:59.920Z,22.53
2022-08-16T23:49:56.134Z,22.52
2022-08-16T23:52:16.241Z,22.47
2022-08-16T23:54:43.699Z,22.46
2022-08-16T23:57:11.119Z,22.38
2022-08-16T23:59:52.254Z,22.49
